Time;durP1;ratioP1;P1;durP2;ratioP2;P2;SDS_P1;SDS_P2;PMS_P1;PMS_P2;Temp;Humidity;BMP_temperature;BMP_pressure;BME280_temperature;BME280_humidity;BME280_pressure;Samples;Min_cycle;Max_cycle;Signal;HPM_P1;HPM_P2
2023/08/09 00:00:06;;;;;;;2.15;1.20;;;10.60;99.90;;;;;;5047572;28;20506;-59
2023/08/09 00:02:35;;;;;;;5.10;1.80;;;10.60;99.90;;;;;;5049609;28;20040;-59
2023/08/09 00:05:04;;;;;;;5.30;1.23;;;10.60;99.90;;;;;;5043762;28;20048;-60
2023/08/09 00:07:32;;;;;;;2.42;1.40;;;10.50;99.90;;;;;;5049186;28;20041;-60
2023/08/09 00:10:00;;;;;;;1.92;1.23;;;10.50;99.90;;;;;;5049127;28;20059;-59
2023/08/09 00:12:27;;;;;;;2.70;0.90;;;10.50;99.90;;;;;;5049843;28;20500;-60
2023/08/09 00:14:55;;;;;;;4.25;1.80;;;10.50;99.90;;;;;;5050247;28;20052;-59
2023/08/09 00:17:23;;;;;;;2.33;0.98;;;10.40;99.90;;;;;;5046000;28;20040;-60
2023/08/09 00:19:51;;;;;;;1.80;0.90;;;10.40;99.90;;;;;;5043859;28;20053;-60
2023/08/09 00:22:19;;;;;;;2.10;1.15;;;10.40;99.90;;;;;;5048218;28;20037;-59
2023/08/09 00:24:47;;;;;;;2.10;1.10;;;10.30;99.90;;;;;;5047210;28;20041;-60
2023/08/09 00:27:14;;;;;;;2.60;1.40;;;10.30;99.90;;;;;;5050471;28;20048;-60
2023/08/09 00:29:42;;;;;;;3.97;1.30;;;10.30;99.90;;;;;;5048558;28;20408;-60
2023/08/09 00:32:10;;;;;;;2.83;1.33;;;10.30;99.90;;;;;;5045774;28;20536;-60
2023/08/09 00:34:38;;;;;;;1.30;1.10;;;10.30;99.90;;;;;;5016722;28;20045;-60
2023/08/09 00:37:06;;;;;;;1.25;1.10;;;10.30;99.90;;;;;;5046386;28;20037;-59
2023/08/09 00:39:33;;;;;;;3.70;1.30;;;10.30;99.90;;;;;;5048143;28;20327;-59
2023/08/09 00:42:01;;;;;;;5.00;1.17;;;10.30;99.90;;;;;;5049522;28;20033;-59
2023/08/09 00:44:29;;;;;;;2.65;0.90;;;10.30;99.90;;;;;;5049510;28;20518;-60
2023/08/09 00:46:57;;;;;;;1.58;1.20;;;10.30;99.90;;;;;;5045813;28;20040;-60
2023/08/09 00:49:25;;;;;;;2.35;1.10;;;10.30;99.90;;;;;;5041664;28;20409;-60
2023/08/09 00:51:54;;;;;;;2.13;1.00;;;10.30;99.90;;;;;;5049683;28;20037;-60
2023/08/09 00:54:23;;;;;;;2.40;1.35;;;10.30;99.90;;;;;;5045770;28;20049;-59
2023/08/09 00:56:52;;;;;;;2.53;1.00;;;10.30;99.90;;;;;;5048675;28;20060;-60
2023/08/09 00:59:20;;;;;;;1.40;0.90;;;10.30;99.90;;;;;;5042301;28;20076;-60
2023/08/09 01:01:48;;;;;;;4.45;1.10;;;10.20;99.90;;;;;;5047627;28;20213;-60
2023/08/09 01:04:18;;;;;;;4.97;1.13;;;10.30;99.90;;;;;;5041419;28;20128;-59
2023/08/09 01:06:57;;;;;;;3.35;1.20;;;10.30;99.90;;;;;;5042590;28;20052;-60
2023/08/09 01:09:40;;;;;;;1.60;1.20;;;10.30;99.90;;;;;;5045188;28;20507;-60
2023/08/09 01:12:12;;;;;;;1.75;1.20;;;10.30;99.90;;;;;;5047415;28;20052;-60
2023/08/09 01:14:42;;;;;;;3.33;1.10;;;10.40;99.90;;;;;;5049405;28;20037;-60
2023/08/09 01:17:13;;;;;;;2.13;1.08;;;10.50;99.90;;;;;;5044465;28;20049;-60
2023/08/09 01:19:49;;;;;;;3.40;1.48;;;10.50;99.90;;;;;;5045725;28;20037;-60
2023/08/09 01:22:22;;;;;;;4.35;1.00;;;10.50;99.90;;;;;;5046378;28;20408;-60
2023/08/09 01:24:50;;;;;;;2.22;1.15;;;10.50;99.90;;;;;;5044671;28;20052;-60
2023/08/09 01:27:18;;;;;;;1.95;1.30;;;10.50;99.90;;;;;;5047574;28;20040;-60
2023/08/09 01:29:45;;;;;;;2.30;1.13;;;10.50;99.90;;;;;;5043369;28;20052;-60
2023/08/09 01:32:14;;;;;;;3.60;1.00;;;10.50;99.90;;;;;;5037637;28;20046;-60
2023/08/09 01:34:42;;;;;;;2.75;1.10;;;10.60;99.90;;;;;;5043171;28;20526;-60
2023/08/09 01:37:25;;;;;;;2.65;1.00;;;10.60;99.90;;;;;;5048822;28;20045;-60
2023/08/09 01:39:57;;;;;;;1.40;1.10;;;10.60;99.90;;;;;;5049884;28;20041;-60
2023/08/09 01:42:26;;;;;;;3.60;1.40;;;10.60;99.90;;;;;;5043791;28;20075;-60
2023/08/09 01:44:55;;;;;;;1.98;1.08;;;10.60;99.90;;;;;;5051567;28;20048;-60
2023/08/09 01:47:26;;;;;;;3.28;1.33;;;10.60;99.90;;;;;;5039592;28;20632;-60
2023/08/09 01:49:54;;;;;;;4.05;1.33;;;10.60;99.90;;;;;;5044251;28;20049;-60
2023/08/09 01:52:21;;;;;;;3.15;2.85;;;10.60;99.90;;;;;;5048389;28;20049;-60
2023/08/09 01:54:49;;;;;;;3.47;1.45;;;10.50;99.90;;;;;;5046235;28;20041;-60
2023/08/09 01:57:17;;;;;;;1.75;1.20;;;10.50;99.90;;;;;;5049361;28;20033;-60
2023/08/09 01:59:44;;;;;;;1.50;1.10;;;10.40;99.90;;;;;;5045980;28;20496;-60
2023/08/09 02:02:12;;;;;;;2.88;1.17;;;10.40;99.90;;;;;;5043864;28;20048;-60
2023/08/09 02:04:40;;;;;;;3.40;1.17;;;10.30;99.90;;;;;;5042344;28;20488;-60
2023/08/09 02:07:08;;;;;;;3.05;1.35;;;10.30;99.90;;;;;;5047224;28;20045;-61
2023/08/09 02:09:36;;;;;;;4.63;1.10;;;10.20;99.90;;;;;;5041528;28;20047;-60
2023/08/09 02:12:04;;;;;;;3.50;2.05;;;10.20;99.90;;;;;;5045919;28;20048;-60
2023/08/09 02:14:32;;;;;;;2.88;1.13;;;10.10;99.90;;;;;;5050076;28;20044;-60
2023/08/09 02:16:59;;;;;;;2.13;1.23;;;10.00;99.90;;;;;;5046795;28;20045;-60
2023/08/09 02:19:29;;;;;;;;;;;10.00;99.90;;;;;;5046529;28;20056;-59
2023/08/09 02:21:57;;;;;;;3.50;1.27;;;10.00;99.90;;;;;;5047113;28;19921;-60
2023/08/09 02:24:25;;;;;;;4.30;1.40;;;9.90;99.90;;;;;;5041349;28;20378;-60
2023/08/09 02:26:53;;;;;;;2.83;1.40;;;9.80;99.90;;;;;;5051427;28;20140;-60
2023/08/09 02:29:21;;;;;;;1.58;1.10;;;9.80;99.90;;;;;;5051387;28;20373;-60
2023/08/09 02:31:49;;;;;;;4.57;1.60;;;9.80;99.90;;;;;;5050112;28;20041;-60
2023/08/09 02:34:19;;;;;;;2.75;1.60;;;9.80;99.90;;;;;;5050909;28;20040;-60
2023/08/09 02:36:46;;;;;;;2.05;1.33;;;9.70;99.90;;;;;;5050737;28;20041;-60
2023/08/09 02:39:14;;;;;;;2.28;1.25;;;9.70;99.90;;;;;;5049563;28;20373;-60
2023/08/09 02:41:42;;;;;;;1.67;1.30;;;9.70;99.90;;;;;;5040391;28;20044;-60
2023/08/09 02:44:10;;;;;;;3.83;1.42;;;9.70;99.90;;;;;;5049785;28;20045;-60
2023/08/09 02:46:38;;;;;;;3.67;1.98;;;9.60;99.90;;;;;;5029471;28;20044;-60
2023/08/09 02:49:07;;;;;;;1.50;1.10;;;9.60;99.90;;;;;;5049387;28;20053;-60
2023/08/09 02:51:35;;;;;;;5.60;1.85;;;9.60;99.90;;;;;;5051491;28;20048;-60
2023/08/09 02:54:05;;;;;;;3.28;1.70;;;9.60;99.90;;;;;;5054554;28;20048;-59
2023/08/09 02:56:33;;;;;;;2.67;1.33;;;9.60;99.90;;;;;;5053343;28;20415;-60
2023/08/09 02:59:02;;;;;;;4.72;1.70;;;;;;;;;;5054968;28;20045;-60
2023/08/09 03:01:29;;;;;;;3.53;1.55;;;9.50;99.90;;;;;;5054960;28;20040;-60
2023/08/09 03:03:58;;;;;;;2.65;1.42;;;9.50;99.90;;;;;;5049566;28;20048;-60
2023/08/09 03:06:27;;;;;;;1.70;1.30;;;9.50;99.90;;;;;;5053366;28;20045;-60
2023/08/09 03:08:55;;;;;;;2.33;1.50;;;9.50;99.90;;;;;;5054499;28;20052;-60
2023/08/09 03:11:25;;;;;;;3.28;1.50;;;9.50;99.90;;;;;;5035478;28;20488;-59
2023/08/09 03:13:53;;;;;;;2.60;1.27;;;9.50;99.90;;;;;;5047243;28;20043;-59
2023/08/09 03:16:22;;;;;;;2.85;1.73;;;9.50;99.90;;;;;;5053553;28;20052;-60
2023/08/09 03:18:50;;;;;;;2.90;1.48;;;9.40;99.90;;;;;;5053251;28;20054;-60
2023/08/09 03:21:18;;;;;;;2.45;1.27;;;9.40;99.90;;;;;;5037012;28;20052;-60
2023/08/09 03:23:46;;;;;;;2.30;1.63;;;9.40;99.90;;;;;;5052175;28;20048;-60
2023/08/09 03:26:15;;;;;;;4.53;1.70;;;9.40;99.90;;;;;;5055663;28;20044;-60
2023/08/09 03:28:44;;;;;;;1.92;1.50;;;9.40;99.90;;;;;;5052207;28;20041;-60
2023/08/09 03:31:14;;;;;;;;;;;9.30;99.90;;;;;;5053492;28;20475;-60
2023/08/09 03:33:42;;;;;;;2.50;1.48;;;9.30;99.90;;;;;;5053092;28;20489;-60
2023/08/09 03:36:09;;;;;;;4.90;2.28;;;9.20;99.90;;;;;;5054324;28;20045;-60
2023/08/09 03:38:37;;;;;;;1.88;1.25;;;9.20;99.90;;;;;;5054098;28;20055;-60
2023/08/09 03:41:04;;;;;;;3.58;1.40;;;9.20;99.90;;;;;;5053010;28;20052;-60
2023/08/09 03:43:32;;;;;;;2.20;1.30;;;9.20;99.90;;;;;;5052829;28;20048;-60
2023/08/09 03:46:00;;;;;;;5.65;1.70;;;9.10;99.90;;;;;;5053638;28;20056;-60
2023/08/09 03:48:28;;;;;;;5.22;1.88;;;9.10;99.90;;;;;;5048970;28;20037;-60
2023/08/09 03:50:56;;;;;;;7.10;1.85;;;9.10;99.90;;;;;;5047999;28;20042;-60
2023/08/09 03:53:24;;;;;;;2.33;1.40;;;9.10;99.90;;;;;;5050274;28;20492;-60
2023/08/09 03:55:52;;;;;;;2.85;1.40;;;9.00;99.90;;;;;;5052549;28;20037;-62
2023/08/09 03:58:20;;;;;;;2.40;1.17;;;9.00;99.90;;;;;;5053752;28;20045;-60
2023/08/09 04:00:48;;;;;;;3.30;1.77;;;9.00;99.90;;;;;;5051347;28;20093;-60
2023/08/09 04:03:17;;;;;;;5.85;1.95;;;9.00;99.90;;;;;;5052094;28;20045;-60
2023/08/09 04:05:44;;;;;;;4.53;1.80;;;9.00;99.90;;;;;;5051364;28;20041;-61
2023/08/09 04:08:12;;;;;;;6.85;1.85;;;8.90;99.90;;;;;;5051157;28;20048;-60
2023/08/09 04:10:40;;;;;;;3.38;1.80;;;8.90;99.90;;;;;;5053283;28;20052;-60
2023/08/09 04:13:07;;;;;;;2.13;1.30;;;8.90;99.90;;;;;;5048789;28;20056;-60
2023/08/09 04:15:35;;;;;;;2.25;1.30;;;8.80;99.90;;;;;;5053589;28;20048;-60
2023/08/09 04:18:04;;;;;;;4.20;1.75;;;8.80;99.90;;;;;;5052257;28;20049;-60
2023/08/09 04:20:31;;;;;;;3.10;1.50;;;8.80;99.90;;;;;;5051571;28;20052;-59
2023/08/09 04:23:00;;;;;;;4.00;1.40;;;8.80;99.90;;;;;;5050116;28;20048;-59
2023/08/09 04:25:28;;;;;;;3.45;1.50;;;8.80;99.90;;;;;;5052418;28;20386;-60
2023/08/09 04:27:56;;;;;;;2.88;1.60;;;8.70;99.90;;;;;;5057493;28;20199;-60
2023/08/09 04:30:24;;;;;;;2.15;1.27;;;8.80;99.90;;;;;;5048165;28;20049;-59
2023/08/09 04:32:55;;;;;;;2.42;1.33;;;8.70;99.90;;;;;;5051461;28;20049;-59
2023/08/09 04:35:23;;;;;;;1.80;1.42;;;8.70;99.90;;;;;;5051455;28;20124;-60
2023/08/09 04:37:51;;;;;;;2.13;1.45;;;8.70;99.90;;;;;;5053267;28;20041;-60
2023/08/09 04:40:18;;;;;;;3.10;2.10;;;8.70;99.90;;;;;;5052682;28;20053;-60
2023/08/09 04:42:47;;;;;;;2.22;1.58;;;8.70;99.90;;;;;;5053166;28;20044;-60
2023/08/09 04:45:15;;;;;;;3.63;1.63;;;8.70;99.90;;;;;;5052783;28;20396;-60
2023/08/09 04:47:43;;;;;;;4.00;1.80;;;8.70;99.90;;;;;;5041847;28;20496;-60
2023/08/09 04:50:12;;;;;;;2.40;1.70;;;8.60;99.90;;;;;;5027574;28;20075;-60
2023/08/09 04:52:41;;;;;;;2.60;1.65;;;8.50;99.90;;;;;;5044849;28;20489;-60
2023/08/09 04:55:12;;;;;;;4.38;1.70;;;8.60;99.90;;;;;;5048384;28;20060;-60
2023/08/09 04:57:41;;;;;;;2.78;1.45;;;8.60;99.90;;;;;;5047062;28;20045;-60
2023/08/09 05:00:10;;;;;;;3.30;1.88;;;8.60;99.90;;;;;;5041161;28;20053;-60
2023/08/09 05:02:38;;;;;;;2.88;1.50;;;8.60;99.90;;;;;;5038121;28;20030;-60
2023/08/09 05:05:07;;;;;;;4.10;1.88;;;8.60;99.90;;;;;;5041743;28;20075;-60
2023/08/09 05:07:37;;;;;;;3.67;1.80;;;8.60;99.90;;;;;;5043084;28;20048;-59
2023/08/09 05:10:06;;;;;;;4.97;1.70;;;8.60;99.90;;;;;;5045956;28;20049;-60
2023/08/09 05:12:34;;;;;;;3.85;1.55;;;8.60;99.90;;;;;;5043143;28;20041;-59
2023/08/09 05:15:04;;;;;;;5.80;2.40;;;8.60;99.90;;;;;;5041754;28;20049;-60
2023/08/09 05:17:32;;;;;;;5.32;2.03;;;8.60;99.90;;;;;;5039295;28;20488;-60
2023/08/09 05:19:59;;;;;;;3.17;1.90;;;8.60;99.90;;;;;;5039846;28;20068;-60
2023/08/09 05:22:27;;;;;;;5.85;2.05;;;8.60;99.90;;;;;;5036813;28;20057;-60
2023/08/09 05:24:55;;;;;;;5.35;1.95;;;8.60;99.90;;;;;;5043280;28;20045;-60
2023/08/09 05:27:27;;;;;;;9.88;2.33;;;8.60;99.90;;;;;;5049943;28;20040;-60
2023/08/09 05:29:54;;;;;;;7.30;2.67;;;8.70;99.90;;;;;;5048360;28;20084;-60
2023/08/09 05:32:22;;;;;;;4.15;2.40;;;8.70;99.90;;;;;;5043781;28;20846;-60
2023/08/09 05:34:50;;;;;;;12.95;4.00;;;8.70;99.90;;;;;;5036755;28;20041;-60
2023/08/09 05:37:18;;;;;;;7.40;3.65;;;;;;;;;;5039449;28;20041;-60
2023/08/09 05:39:45;;;;;;;8.80;3.70;;;8.80;99.90;;;;;;5044042;28;20036;-60
2023/08/09 05:42:14;;;;;;;6.47;3.53;;;8.80;99.90;;;;;;5044586;28;20072;-60
2023/08/09 05:44:42;;;;;;;6.38;3.40;;;8.90;99.90;;;;;;5040798;28;20041;-60
2023/08/09 05:47:10;;;;;;;7.40;3.58;;;8.90;99.90;;;;;;5037631;28;20439;-64
2023/08/09 05:49:39;;;;;;;6.68;2.70;;;8.90;99.90;;;;;;5036755;28;20397;-60
2023/08/09 05:52:07;;;;;;;5.13;2.67;;;9.00;99.90;;;;;;5040610;28;20064;-60
2023/08/09 05:54:34;;;;;;;6.88;2.83;;;9.00;99.90;;;;;;5035954;28;20041;-60
2023/08/09 05:57:02;;;;;;;7.10;2.70;;;9.10;99.90;;;;;;5042558;28;20045;-60
2023/08/09 05:59:30;;;;;;;6.72;2.90;;;9.20;99.90;;;;;;5044240;28;20504;-60
2023/08/09 06:01:59;;;;;;;7.00;2.75;;;9.10;99.90;;;;;;5028571;28;20045;-60
2023/08/09 06:04:26;;;;;;;5.57;2.55;;;9.20;99.90;;;;;;5044945;28;20041;-60
2023/08/09 06:06:54;;;;;;;7.32;2.90;;;9.30;99.90;;;;;;5042892;28;20503;-60
2023/08/09 06:09:23;;;;;;;6.55;3.10;;;9.30;99.90;;;;;;5040711;28;20060;-60
2023/08/09 06:12:08;;;;;;;5.43;3.08;;;9.50;99.90;;;;;;5046610;28;20858;-60
2023/08/09 06:14:36;;;;;;;5.97;3.33;;;9.50;99.90;;;;;;5046540;28;20072;-60
2023/08/09 06:17:04;;;;;;;8.15;2.67;;;9.50;99.90;;;;;;5045260;28;20037;-60
2023/08/09 06:19:34;;;;;;;8.38;3.22;;;9.70;99.90;;;;;;5045602;28;20107;-60
2023/08/09 06:22:01;;;;;;;6.40;3.37;;;9.70;99.90;;;;;;5045981;28;20037;-60
2023/08/09 06:24:29;;;;;;;6.85;2.35;;;9.70;99.90;;;;;;5041973;28;20068;-60
2023/08/09 06:26:57;;;;;;;4.63;2.92;;;9.80;99.90;;;;;;5038166;28;20044;-60
2023/08/09 06:29:25;;;;;;;6.47;2.78;;;9.90;99.90;;;;;;5039892;28;20056;-61
2023/08/09 06:31:53;;;;;;;7.90;2.63;;;10.00;99.90;;;;;;5042721;28;20048;-60
2023/08/09 06:34:20;;;;;;;5.70;3.22;;;10.00;99.90;;;;;;5043753;28;20429;-60
2023/08/09 06:36:48;;;;;;;7.03;3.10;;;10.20;99.90;;;;;;5045081;28;20053;-60
2023/08/09 06:39:16;;;;;;;5.93;2.83;;;10.20;99.90;;;;;;5041941;28;20056;-60
2023/08/09 06:41:44;;;;;;;5.35;2.40;;;10.60;99.90;;;;;;5040725;28;20393;-60
2023/08/09 06:44:11;;;;;;;4.45;2.95;;;10.50;99.90;;;;;;5043568;28;20496;-60
2023/08/09 06:46:39;;;;;;;3.90;2.30;;;10.50;99.90;;;;;;5036098;28;20037;-61
2023/08/09 06:49:07;;;;;;;5.22;2.63;;;10.80;99.90;;;;;;5043504;28;20037;-58
2023/08/09 06:51:34;;;;;;;7.75;2.70;;;10.80;99.90;;;;;;5044414;28;20342;-60
2023/08/09 06:54:03;;;;;;;6.93;2.40;;;11.00;99.90;;;;;;5042738;28;20041;-60
2023/08/09 06:56:31;;;;;;;5.40;2.58;;;11.00;99.90;;;;;;5045782;28;20481;-60
2023/08/09 06:58:59;;;;;;;6.90;2.60;;;11.20;99.90;;;;;;5044865;28;20048;-61
2023/08/09 07:01:27;;;;;;;5.10;2.22;;;11.20;99.90;;;;;;5041093;28;20033;-61
2023/08/09 07:03:56;;;;;;;6.07;3.58;;;11.40;99.90;;;;;;5040107;28;20053;-60
2023/08/09 07:06:24;;;;;;;3.77;2.67;;;11.50;99.90;;;;;;5039026;28;20472;-60
2023/08/09 07:08:53;;;;;;;6.13;2.30;;;11.50;99.90;;;;;;5044703;28;20068;-60
2023/08/09 07:11:22;;;;;;;3.40;2.03;;;11.60;99.90;;;;;;5044278;28;20052;-60
2023/08/09 07:13:50;;;;;;;4.28;1.92;;;11.80;99.90;;;;;;5046422;28;20056;-60
2023/08/09 07:16:17;;;;;;;5.32;2.03;;;11.80;99.90;;;;;;5045977;28;20388;-60
2023/08/09 07:18:45;;;;;;;4.35;1.98;;;12.00;99.90;;;;;;5045528;28;20060;-60
2023/08/09 07:21:13;;;;;;;3.15;1.60;;;12.10;99.90;;;;;;5040472;28;20037;-60
2023/08/09 07:23:41;;;;;;;2.95;2.00;;;12.20;99.90;;;;;;5047284;28;20052;-60
2023/08/09 07:26:25;;;;;;;1.98;1.55;;;12.30;99.90;;;;;;5041101;28;20057;-60
2023/08/09 07:28:53;;;;;;;4.00;1.92;;;12.40;99.90;;;;;;5045295;28;20045;-60
2023/08/09 07:31:23;;;;;;;3.20;1.88;;;12.50;99.90;;;;;;5046995;28;20338;-59
2023/08/09 07:33:51;;;;;;;6.60;2.00;;;12.60;99.90;;;;;;5046657;28;20037;-59
2023/08/09 07:36:19;;;;;;;4.32;1.77;;;12.80;99.90;;;;;;5039388;28;20056;-59
2023/08/09 07:38:47;;;;;;;2.42;1.70;;;12.80;99.90;;;;;;5045476;28;20041;-59
2023/08/09 07:41:14;;;;;;;2.47;1.60;;;12.90;99.90;;;;;;5048870;28;20403;-60
2023/08/09 07:43:42;;;;;;;2.47;1.35;;;13.00;99.90;;;;;;5049931;28;20044;-59
2023/08/09 07:46:10;;;;;;;2.72;1.10;;;13.10;99.90;;;;;;5048294;28;20526;-60
2023/08/09 07:48:38;;;;;;;2.33;1.27;;;13.30;99.90;;;;;;5051790;28;20530;-60
2023/08/09 07:51:11;;;;;;;3.10;1.10;;;13.40;99.90;;;;;;5045546;28;20056;-59
2023/08/09 07:53:39;;;;;;;2.70;1.40;;;13.60;99.90;;;;;;5048480;28;20049;-60
2023/08/09 07:56:09;;;;;;;4.60;2.67;;;13.70;99.90;;;;;;5043624;28;20049;-59
2023/08/09 07:58:38;;;;;;;5.28;2.38;;;13.90;99.90;;;;;;5038578;28;20591;-59
2023/08/09 08:01:05;;;;;;;4.25;2.60;;;14.20;99.90;;;;;;5043440;28;20499;-59
2023/08/09 08:03:33;;;;;;;6.90;2.80;;;14.20;99.90;;;;;;5034405;28;20076;-59
2023/08/09 08:06:02;;;;;;;4.20;2.75;;;14.30;99.90;;;;;;5040750;28;20046;-61
2023/08/09 08:08:29;;;;;;;4.47;2.58;;;14.40;99.90;;;;;;5042716;28;20053;-60
2023/08/09 08:10:57;;;;;;;5.18;2.00;;;14.50;99.90;;;;;;5040171;28;20048;-60
2023/08/09 08:13:25;;;;;;;4.60;2.17;;;14.50;99.90;;;;;;5039643;28;20045;-60
2023/08/09 08:15:53;;;;;;;5.18;2.13;;;14.60;99.90;;;;;;5044559;28;20056;-60
2023/08/09 08:18:21;;;;;;;5.22;1.83;;;14.60;99.90;;;;;;5036903;28;20041;-60
2023/08/09 08:20:49;;;;;;;4.63;2.72;;;14.60;99.90;;;;;;5041883;28;20044;-60
2023/08/09 08:23:17;;;;;;;3.72;2.10;;;14.80;99.90;;;;;;5040792;28;20075;-60
2023/08/09 08:25:45;;;;;;;4.13;2.00;;;14.80;99.90;;;;;;5034513;28;20040;-61
2023/08/09 08:28:13;;;;;;;3.53;2.05;;;14.90;99.90;;;;;;5035452;28;20049;-61
2023/08/09 08:30:40;;;;;;;6.63;2.42;;;14.90;99.90;;;;;;5031468;28;20044;-61
2023/08/09 08:33:08;;;;;;;4.90;1.75;;;15.00;99.90;;;;;;5033184;28;20480;-60
2023/08/09 08:35:43;;;;;;;1.45;1.30;;;15.10;99.90;;;;;;5037355;28;20485;-61
2023/08/09 08:38:11;;;;;;;2.40;1.60;;;15.30;99.90;;;;;;5039898;28;20057;-60
2023/08/09 08:40:39;;;;;;;7.75;1.85;;;15.50;99.90;;;;;;5044800;28;20045;-61
2023/08/09 08:43:08;;;;;;;4.25;1.50;;;15.60;99.90;;;;;;5045409;28;20512;-60
2023/08/09 08:45:40;;;;;;;4.68;1.83;;;15.80;99.90;;;;;;5046071;28;20041;-60
2023/08/09 08:48:10;;;;;;;7.93;2.00;;;16.00;99.90;;;;;;5043125;28;20041;-60
2023/08/09 08:50:39;;;;;;;1.80;1.40;;;15.90;99.90;;;;;;5047283;28;20037;-60
2023/08/09 08:53:08;;;;;;;5.05;1.65;;;16.00;99.90;;;;;;5044958;28;20057;-60
2023/08/09 08:55:36;;;;;;;4.72;1.80;;;16.10;99.90;;;;;;5029644;28;20428;-60
2023/08/09 08:58:05;;;;;;;2.63;1.20;;;16.10;99.90;;;;;;5040996;28;20045;-60
2023/08/09 09:00:32;;;;;;;6.55;1.23;;;16.10;99.90;;;;;;5044295;28;20401;-60
2023/08/09 09:03:01;;;;;;;3.60;1.63;;;16.10;99.90;;;;;;5034223;28;20049;-61
2023/08/09 09:05:28;;;;;;;1.25;1.10;;;16.30;99.90;;;;;;5035218;28;20042;-60
2023/08/09 09:07:56;;;;;;;3.17;0.88;;;16.40;99.90;;;;;;5036142;28;20058;-61
2023/08/09 09:10:25;;;;;;;2.67;0.70;;;16.40;99.90;;;;;;5035867;28;20067;-60
2023/08/09 09:12:54;;;;;;;5.45;1.10;;;16.50;99.90;;;;;;5042455;28;21558;-61
2023/08/09 09:15:26;;;;;;;2.55;0.85;;;16.50;99.90;;;;;;5039913;28;20049;-62
2023/08/09 09:17:54;;;;;;;1.73;0.95;;;16.70;99.90;;;;;;5047886;28;20045;-60
2023/08/09 09:20:27;;;;;;;2.85;1.20;;;16.60;99.90;;;;;;5048386;28;20041;-60
2023/08/09 09:22:56;;;;;;;4.03;0.98;;;16.60;99.90;;;;;;5048283;28;20044;-60
2023/08/09 09:25:24;;;;;;;1.23;0.73;;;16.60;99.90;;;;;;5048540;28;20052;-60
2023/08/09 09:27:56;;;;;;;1.58;0.95;;;16.70;99.90;;;;;;5048293;28;20070;-60
2023/08/09 09:30:29;;;;;;;1.63;1.25;;;16.70;99.90;;;;;;5045558;28;20056;-60
2023/08/09 09:33:00;;;;;;;1.73;1.00;;;16.90;99.90;;;;;;5051565;28;20049;-60
2023/08/09 09:35:30;;;;;;;2.78;1.38;;;17.00;99.90;;;;;;5048882;28;20041;-61
2023/08/09 09:37:59;;;;;;;2.67;1.13;;;17.10;99.90;;;;;;5048193;28;20049;-60
2023/08/09 09:40:36;;;;;;;2.83;1.60;;;17.10;99.90;;;;;;5041133;28;20056;-61
2023/08/09 09:43:05;;;;;;;1.92;1.20;;;17.20;99.90;;;;;;5041089;28;20049;-60
2023/08/09 09:45:36;;;;;;;3.97;0.90;;;17.50;99.90;;;;;;5047092;28;20063;-60
2023/08/09 09:48:17;;;;;;;1.10;0.90;;;17.60;99.90;;;;;;5046440;28;20055;-60
2023/08/09 09:50:46;;;;;;;2.30;1.10;;;17.60;99.90;;;;;;5041698;28;20503;-61
2023/08/09 09:53:16;;;;;;;3.50;1.40;;;17.90;99.90;;;;;;5038077;28;20546;-61
2023/08/09 09:55:44;;;;;;;5.50;1.80;;;17.90;99.90;;;;;;5044087;28;20041;-60
2023/08/09 09:58:12;;;;;;;3.03;1.50;;;18.10;99.90;;;;;;5043899;28;20055;-60
2023/08/09 10:00:47;;;;;;;2.95;1.20;;;18.20;99.90;;;;;;5043263;28;20408;-60
2023/08/09 10:03:18;;;;;;;4.07;1.65;;;18.30;99.90;;;;;;5043339;28;20076;-60
2023/08/09 10:05:47;;;;;;;4.22;1.70;;;18.50;99.90;;;;;;5047967;28;20119;-60
2023/08/09 10:08:19;;;;;;;13.60;2.00;;;18.60;99.90;;;;;;5047372;28;20056;-60
2023/08/09 10:10:50;;;;;;;6.20;2.28;;;18.70;99.90;;;;;;5043231;28;20052;-60
2023/08/09 10:13:21;;;;;;;2.75;1.83;;;18.80;99.90;;;;;;5043942;28;20057;-60
2023/08/09 10:15:57;;;;;;;4.38;2.67;;;19.00;99.90;;;;;;5042253;28;20049;-60
2023/08/09 10:18:33;;;;;;;5.32;2.25;;;19.10;99.90;;;;;;5042454;28;20060;-61
2023/08/09 10:21:02;;;;;;;3.75;2.13;;;19.20;99.90;;;;;;5047823;28;20507;-61
2023/08/09 10:23:30;;;;;;;3.00;1.80;;;19.50;99.90;;;;;;5045277;28;20056;-61
2023/08/09 10:25:59;;;;;;;2.60;1.85;;;19.70;99.90;;;;;;5045602;28;20048;-61
2023/08/09 10:28:39;;;;;;;6.78;1.77;;;19.90;99.90;;;;;;5039662;28;20049;-61
2023/08/09 10:31:07;;;;;;;3.28;1.83;;;19.90;99.90;;;;;;5046316;28;20056;-60
2023/08/09 10:33:35;;;;;;;4.50;2.15;;;20.30;99.90;;;;;;5044156;28;20045;-60
2023/08/09 10:36:03;;;;;;;5.47;2.15;;;20.30;99.90;;;;;;5045057;28;20061;-61
2023/08/09 10:38:31;;;;;;;3.67;1.98;;;20.40;99.90;;;;;;5045588;28;20041;-61
2023/08/09 10:41:12;;;;;;;2.70;1.80;;;20.50;99.90;;;;;;5041587;28;20044;-61
2023/08/09 10:43:42;;;;;;;4.90;1.80;;;20.80;99.90;;;;;;5038625;28;20033;-60
2023/08/09 10:46:24;;;;;;;3.63;2.00;;;20.80;99.90;;;;;;5042336;28;20496;-61
2023/08/09 10:48:59;;;;;;;8.82;2.22;;;20.80;99.90;;;;;;5042587;28;20052;-61
2023/08/09 10:51:27;;;;;;;2.88;1.63;;;20.80;99.90;;;;;;5042491;28;20033;-61
2023/08/09 10:54:04;;;;;;;4.03;2.00;;;20.90;99.90;;;;;;5045911;28;20049;-61
2023/08/09 10:56:33;;;;;;;2.88;1.83;;;21.10;99.90;;;;;;5048358;28;20045;-62
2023/08/09 10:59:14;;;;;;;2.58;1.67;;;21.10;99.90;;;;;;5046867;28;20037;-61
2023/08/09 11:01:42;;;;;;;5.85;1.63;;;21.10;99.90;;;;;;5046485;28;20044;-62
2023/08/09 11:04:17;;;;;;;6.00;1.50;;;21.10;99.90;;;;;;5047332;28;20484;-61
2023/08/09 11:06:49;;;;;;;4.00;1.40;;;21.00;99.90;;;;;;5047692;28;20033;-61
2023/08/09 11:09:21;;;;;;;2.75;1.55;;;21.20;99.90;;;;;;5047376;28;20056;-61
2023/08/09 11:11:50;;;;;;;3.15;1.23;;;21.40;99.90;;;;;;5048829;28;20052;-61
2023/08/09 11:14:20;;;;;;;4.13;1.38;;;21.60;99.90;;;;;;5043754;28;20055;-61
2023/08/09 11:16:49;;;;;;;1.38;1.27;;;21.80;99.90;;;;;;5046472;28;20049;-60
2023/08/09 11:19:25;;;;;;;3.55;1.52;;;21.90;99.90;;;;;;5035168;28;20064;-61
2023/08/09 11:22:02;;;;;;;2.90;1.70;;;21.90;99.90;;;;;;5047952;28;20048;-61
2023/08/09 11:24:31;;;;;;;4.45;1.25;;;;;;;;;;5046420;28;20052;-61
2023/08/09 11:27:00;;;;;;;3.38;1.20;;;21.90;99.90;;;;;;5049801;28;20045;-61
2023/08/09 11:29:28;;;;;;;2.65;1.58;;;22.20;99.90;;;;;;5046456;28;20504;-61
2023/08/09 11:31:58;;;;;;;4.40;1.65;;;22.10;99.90;;;;;;5050669;28;20045;-61
2023/08/09 11:34:26;;;;;;;5.85;2.55;;;22.30;99.90;;;;;;5050608;28;20052;-61
2023/08/09 11:36:55;;;;;;;2.72;1.20;;;22.40;99.90;;;;;;5032992;28;20056;-61
2023/08/09 11:39:25;;;;;;;5.47;1.75;;;22.40;99.90;;;;;;5049800;28;20060;-61
2023/08/09 11:41:56;;;;;;;2.80;1.02;;;22.50;99.90;;;;;;5050688;28;20499;-61
2023/08/09 11:44:25;;;;;;;1.85;1.10;;;;;;;;;;5048379;28;20427;-61
2023/08/09 11:46:57;;;;;;;1.38;0.82;;;22.60;99.90;;;;;;5047006;28;20067;-61
2023/08/09 11:49:33;;;;;;;2.45;1.30;;;22.50;99.90;;;;;;5049607;28;20045;-61
2023/08/09 11:52:03;;;;;;;3.60;0.90;;;22.50;99.90;;;;;;5031394;28;20516;-61
2023/08/09 11:54:31;;;;;;;2.97;1.30;;;22.40;99.90;;;;;;5046666;28;20051;-61
2023/08/09 11:56:59;;;;;;;2.45;1.10;;;22.40;99.90;;;;;;5048449;28;20045;-61
2023/08/09 11:59:28;;;;;;;2.50;1.40;;;22.40;99.90;;;;;;5048724;28;20037;-61
2023/08/09 12:01:57;;;;;;;2.03;1.33;;;22.40;99.90;;;;;;5049197;28;20353;-62
2023/08/09 12:04:27;;;;;;;3.47;0.90;;;22.30;99.90;;;;;;5051994;28;20060;-61
2023/08/09 12:07:01;;;;;;;1.65;0.88;;;22.30;99.90;;;;;;5050497;28;20228;-62
2023/08/09 12:09:40;;;;;;;4.47;0.90;;;22.40;99.90;;;;;;5048861;28;20056;-61
2023/08/09 12:12:13;;;;;;;5.65;1.23;;;22.50;99.90;;;;;;5045201;28;20049;-61
2023/08/09 12:14:43;;;;;;;2.13;1.10;;;22.40;99.90;;;;;;5046267;28;20044;-61
2023/08/09 12:17:25;;;;;;;2.60;1.05;;;22.50;99.90;;;;;;5050126;28;20049;-61
2023/08/09 12:19:56;;;;;;;2.15;1.08;;;22.40;99.90;;;;;;5050461;28;20063;-61
2023/08/09 12:22:27;;;;;;;2.92;1.08;;;22.50;99.90;;;;;;5048412;28;20049;-61
2023/08/09 12:24:56;;;;;;;1.83;1.00;;;22.50;99.90;;;;;;5049645;28;20052;-62
2023/08/09 12:27:25;;;;;;;0.98;0.80;;;22.50;99.90;;;;;;5052282;28;20426;-61
2023/08/09 12:29:53;;;;;;;5.10;1.10;;;22.60;99.90;;;;;;5045839;28;20519;-61
2023/08/09 12:32:21;;;;;;;4.10;1.45;;;22.70;99.90;;;;;;5047287;28;20045;-61
2023/08/09 12:34:49;;;;;;;3.42;1.00;;;22.80;99.90;;;;;;5046411;28;20480;-61
2023/08/09 12:37:18;;;;;;;3.80;1.05;;;22.90;99.90;;;;;;5047016;28;20594;-61
2023/08/09 12:39:47;;;;;;;2.80;0.95;;;22.90;99.90;;;;;;5046055;28;20037;-61
2023/08/09 12:42:14;;;;;;;1.70;0.95;;;22.80;99.90;;;;;;5048031;28;20404;-61
2023/08/09 12:44:43;;;;;;;3.17;1.40;;;22.60;99.90;;;;;;5048202;28;20037;-60
2023/08/09 12:47:11;;;;;;;2.72;1.00;;;22.60;99.90;;;;;;5048543;28;20052;-61
2023/08/09 12:49:41;;;;;;;1.70;1.02;;;22.40;99.90;;;;;;5047693;28;20067;-61
2023/08/09 12:52:08;;;;;;;2.15;0.90;;;22.40;99.90;;;;;;5048650;28;20049;-62
2023/08/09 12:54:36;;;;;;;2.35;0.90;;;22.60;99.90;;;;;;5045854;28;20136;-61
2023/08/09 12:57:04;;;;;;;2.55;1.10;;;22.50;99.90;;;;;;5050314;28;20056;-61
2023/08/09 12:59:32;;;;;;;4.82;0.90;;;22.70;99.90;;;;;;5043370;28;20053;-61
2023/08/09 13:02:00;;;;;;;3.60;1.08;;;23.40;99.90;;;;;;5049222;28;20041;-61